Terminal Aerodrome Forecast
Issued by NWS

Home | Current Version | Previous Version | Text Only | Print | Product List | Glossary Off
Versions: 1 2 3 4 5 6 7 8 9 10 11 12

000
FTUS43 KEAX 221120
TAFMKC
TAF
KMKC 221120Z 2212/2312 22011KT P6SM FEW250
     FM221700 25009KT P6SM SCT070 BKN150
     FM222300 35004KT P6SM VCTS SCT070CB
     FM230900 03005KT P6SM BKN150=

USA.gov is the U.S. government's official web portal to all federal, state and local government web resources and services.